Time;durP1;ratioP1;P1;durP2;ratioP2;P2;SDS_P1;SDS_P2;PMS_P1;PMS_P2;Temp;Humidity;BMP_temperature;BMP_pressure;BME280_temperature;BME280_humidity;BME280_pressure;Samples;Min_cycle;Max_cycle;Signal;HPM_P1;HPM_P2
2021/01/21 00:00:29;;;;;;;1.63;1.33;;;11.5;99.9;;;;;;;;;
2021/01/21 00:01:02;;;;;;;1.63;1.33;;;11.5;99.9;;;;;;;;;
2021/01/21 00:02:02;;;;;;;3.3;0.98;;;11.5;99.9;;;;;;;;;
2021/01/21 00:02:42;;;;;;;3.85;1.6;;;11.6;99.9;;;;;;;;;
2021/01/21 00:03:02;;;;;;;3.85;1.6;;;11.6;99.9;;;;;;;;;
2021/01/21 00:03:12;;;;;;;3.85;1.6;;;11.6;99.9;;;;;;;;;
2021/01/21 00:04:02;;;;;;;3.15;1.02;;;11.6;99.9;;;;;;;;;
2021/01/21 00:04:14;;;;;;;3.15;1.02;;;11.6;99.9;;;;;;;;;
2021/01/21 00:04:55;;;;;;;2.22;1.1;;;11.7;99.9;;;;;;;;;
2021/01/21 00:05:02;;;;;;;2.22;1.1;;;11.7;99.9;;;;;;;;;
2021/01/21 00:05:15;;;;;;;2.22;1.1;;;11.7;99.9;;;;;;;;;
2021/01/21 00:05:26;;;;;;;2.22;1.1;;;11.7;99.9;;;;;;;;;
2021/01/21 00:06:02;;;;;;;1.73;1.58;;;11.7;99.9;;;;;;;;;
2021/01/21 00:06:17;;;;;;;1.73;1.58;;;11.7;99.9;;;;;;;;;
2021/01/21 00:06:27;;;;;;;2.58;0.9;;;11.7;99.9;;;;;;;;;
2021/01/21 00:07:02;;;;;;;2.58;0.9;;;11.7;99.9;;;;;;;;;
2021/01/21 00:07:08;;;;;;;2.58;0.9;;;11.7;99.9;;;;;;;;;
2021/01/21 00:07:13;;;;;;;2.58;0.9;;;11.7;99.9;;;;;;;;;
2021/01/21 00:07:28;;;;;;;2.3;1.1;;;11.7;99.9;;;;;;;;;
2021/01/21 00:07:39;;;;;;;2.3;1.1;;;11.7;99.9;;;;;;;;;
2021/01/21 00:08:02;;;;;;;2.3;1.1;;;11.7;99.9;;;;;;;;;
2021/01/21 00:08:14;;;;;;;2.3;1.1;;;11.7;99.9;;;;;;;;;
2021/01/21 00:08:30;;;;;;;2.08;1.05;;;11.7;99.9;;;;;;;;;
2021/01/21 00:08:40;;;;;;;2.08;1.05;;;11.7;99.9;;;;;;;;;
2021/01/21 00:09:02;;;;;;;2.08;1.05;;;11.7;99.9;;;;;;;;;
2021/01/21 00:09:16;;;;;;;2.08;1.05;;;11.7;99.9;;;;;;;;;
2021/01/21 00:09:26;;;;;;;2.08;1.05;;;11.7;99.9;;;;;;;;;
2021/01/21 00:09:42;;;;;;;1.52;1;;;11.7;99.9;;;;;;;;;
2021/01/21 00:09:52;;;;;;;1.52;1;;;11.7;99.9;;;;;;;;;
2021/01/21 00:10:02;;;;;;;1.52;1;;;11.7;99.9;;;;;;;;;
2021/01/21 00:10:17;;;;;;;1.52;1;;;11.7;99.9;;;;;;;;;
2021/01/21 00:10:28;;;;;;;1.52;1;;;11.7;99.9;;;;;;;;;
2021/01/21 00:10:43;;;;;;;1.9;1.13;;;11.7;99.9;;;;;;;;;
2021/01/21 00:10:53;;;;;;;1.9;1.13;;;11.7;99.9;;;;;;;;;
2021/01/21 00:11:02;;;;;;;1.9;1.13;;;11.7;99.9;;;;;;;;;
2021/01/21 00:11:14;;;;;;;1.9;1.13;;;11.7;99.9;;;;;;;;;
2021/01/21 00:11:29;;;;;;;2.03;0.98;;;11.7;99.9;;;;;;;;;
2021/01/21 00:11:39;;;;;;;2.03;0.98;;;11.7;99.9;;;;;;;;;
2021/01/21 00:11:55;;;;;;;2.03;0.98;;;11.7;99.9;;;;;;;;;
2021/01/21 00:12:02;;;;;;;2.03;0.98;;;11.7;99.9;;;;;;;;;
2021/01/21 00:12:05;;;;;;;2.03;0.98;;;11.7;99.9;;;;;;;;;
2021/01/21 00:12:15;;;;;;;2.03;0.98;;;11.7;99.9;;;;;;;;;
2021/01/21 00:12:30;;;;;;;2.97;1.1;;;11.8;99.9;;;;;;;;;
2021/01/21 00:12:41;;;;;;;2.97;1.1;;;11.8;99.9;;;;;;;;;
2021/01/21 00:12:56;;;;;;;2.97;1.1;;;11.8;99.9;;;;;;;;;
2021/01/21 00:13:02;;;;;;;2.97;1.1;;;11.8;99.9;;;;;;;;;
2021/01/21 00:13:06;;;;;;;2.97;1.1;;;11.8;99.9;;;;;;;;;
2021/01/21 00:13:17;;;;;;;2.97;1.1;;;11.8;99.9;;;;;;;;;
2021/01/21 00:13:27;;;;;;;2.97;1.1;;;11.8;99.9;;;;;;;;;
2021/01/21 00:13:42;;;;;;;1.38;1;;;11.7;99.9;;;;;;;;;
2021/01/21 00:13:52;;;;;;;1.38;1;;;11.7;99.9;;;;;;;;;
2021/01/21 00:14:02;;;;;;;1.38;1;;;11.7;99.9;;;;;;;;;
2021/01/21 00:14:08;;;;;;;1.38;1;;;11.7;99.9;;;;;;;;;
2021/01/21 00:14:13;;;;;;;1.38;1;;;11.7;99.9;;;;;;;;;
2021/01/21 00:14:29;;;;;;;1.38;1;;;11.7;99.9;;;;;;;;;
2021/01/21 00:14:44;;;;;;;2.8;1.3;;;11.8;99.9;;;;;;;;;
2021/01/21 00:14:54;;;;;;;2.8;1.3;;;11.8;99.9;;;;;;;;;
2021/01/21 00:15:02;;;;;;;2.8;1.3;;;11.8;99.9;;;;;;;;;
2021/01/21 00:15:09;;;;;;;2.8;1.3;;;11.8;99.9;;;;;;;;;
2021/01/21 00:15:14;;;;;;;2.8;1.3;;;11.8;99.9;;;;;;;;;
2021/01/21 00:15:30;;;;;;;1.33;0.9;;;11.8;99.9;;;;;;;;;
2021/01/21 00:15:40;;;;;;;1.33;0.9;;;11.8;99.9;;;;;;;;;
2021/01/21 00:15:55;;;;;;;1.33;0.9;;;11.8;99.9;;;;;;;;;
2021/01/21 00:16:02;;;;;;;1.33;0.9;;;11.8;99.9;;;;;;;;;
2021/01/21 00:16:06;;;;;;;1.33;0.9;;;11.8;99.9;;;;;;;;;
2021/01/21 00:16:16;;;;;;;1.33;0.9;;;11.8;99.9;;;;;;;;;
2021/01/21 00:16:26;;;;;;;1.33;0.9;;;11.8;99.9;;;;;;;;;
2021/01/21 00:16:41;;;;;;;1.1;0.7;;;11.7;99.9;;;;;;;;;
2021/01/21 00:16:57;;;;;;;1.1;0.7;;;11.7;99.9;;;;;;;;;
2021/01/21 00:17:01;;;;;;;1.1;0.7;;;11.7;99.9;;;;;;;;;
2021/01/21 00:17:07;;;;;;;1.1;0.7;;;11.7;99.9;;;;;;;;;
2021/01/21 00:17:12;;;;;;;1.1;0.7;;;11.7;99.9;;;;;;;;;
2021/01/21 00:17:28;;;;;;;1.1;0.7;;;11.7;99.9;;;;;;;;;
2021/01/21 00:17:43;;;;;;;2.58;1.05;;;11.7;99.9;;;;;;;;;
2021/01/21 00:17:53;;;;;;;2.58;1.05;;;11.7;99.9;;;;;;;;;
2021/01/21 00:18:02;;;;;;;2.58;1.05;;;11.7;99.9;;;;;;;;;
2021/01/21 00:18:08;;;;;;;2.58;1.05;;;11.7;99.9;;;;;;;;;
2021/01/21 00:18:14;;;;;;;2.58;1.05;;;11.7;99.9;;;;;;;;;
2021/01/21 00:18:29;;;;;;;2.58;1.05;;;11.7;99.9;;;;;;;;;
2021/01/21 00:18:39;;;;;;;2.58;1;;;11.8;99.9;;;;;;;;;
2021/01/21 00:18:54;;;;;;;2.58;1;;;11.8;99.9;;;;;;;;;
2021/01/21 00:19:02;;;;;;;2.58;1;;;11.8;99.9;;;;;;;;;
2021/01/21 00:19:10;;;;;;;2.58;1;;;11.8;99.9;;;;;;;;;
2021/01/21 00:19:15;;;;;;;2.58;1;;;11.8;99.9;;;;;;;;;
2021/01/21 00:19:25;;;;;;;2.58;1;;;11.8;99.9;;;;;;;;;
2021/01/21 00:19:41;;;;;;;1.63;1.1;;;11.9;99.9;;;;;;;;;
2021/01/21 00:19:56;;;;;;;1.63;1.1;;;11.9;99.9;;;;;;;;;
2021/01/21 00:20:02;;;;;;;1.63;1.1;;;11.9;99.9;;;;;;;;;
2021/01/21 00:20:06;;;;;;;1.63;1.1;;;11.9;99.9;;;;;;;;;
2021/01/21 00:20:17;;;;;;;1.63;1.1;;;11.9;99.9;;;;;;;;;
2021/01/21 00:20:27;;;;;;;1.63;1.1;;;11.9;99.9;;;;;;;;;
2021/01/21 00:20:42;;;;;;;2.45;1;;;11.9;99.9;;;;;;;;;
2021/01/21 00:20:52;;;;;;;2.45;1;;;11.9;99.9;;;;;;;;;
2021/01/21 00:21:02;;;;;;;2.45;1;;;11.9;99.9;;;;;;;;;
2021/01/21 00:21:08;;;;;;;2.45;1;;;11.9;99.9;;;;;;;;;
2021/01/21 00:21:13;;;;;;;2.45;1;;;11.9;99.9;;;;;;;;;
2021/01/21 00:21:28;;;;;;;2.45;1;;;11.9;99.9;;;;;;;;;
2021/01/21 00:21:38;;;;;;;1.58;1;;;11.9;99.9;;;;;;;;;
2021/01/21 00:21:54;;;;;;;1.58;1;;;11.9;99.9;;;;;;;;;
2021/01/21 00:22:02;;;;;;;1.58;1;;;11.9;99.9;;;;;;;;;
2021/01/21 00:22:09;;;;;;;1.58;1;;;11.9;99.9;;;;;;;;;
2021/01/21 00:22:14;;;;;;;1.58;1;;;11.9;99.9;;;;;;;;;
2021/01/21 00:22:30;;;;;;;1.58;1;;;11.9;99.9;;;;;;;;;
2021/01/21 00:22:40;;;;;;;2.22;1;;;11.9;99.9;;;;;;;;;
2021/01/21 00:22:55;;;;;;;2.22;1;;;11.9;99.9;;;;;;;;;
2021/01/21 00:23:02;;;;;;;2.22;1;;;11.9;99.9;;;;;;;;;
2021/01/21 00:23:05;;;;;;;2.22;1;;;11.9;99.9;;;;;;;;;
2021/01/21 00:23:16;;;;;;;2.22;1;;;11.9;99.9;;;;;;;;;
2021/01/21 00:23:26;;;;;;;2.22;1;;;11.9;99.9;;;;;;;;;
2021/01/21 00:23:41;;;;;;;3.17;0.9;;;11.9;99.9;;;;;;;;;
2021/01/21 00:23:52;;;;;;;3.17;0.9;;;11.9;99.9;;;;;;;;;
2021/01/21 00:24:01;;;;;;;3.17;0.9;;;11.9;99.9;;;;;;;;;
2021/01/21 00:24:07;;;;;;;3.17;0.9;;;11.9;99.9;;;;;;;;;
2021/01/21 00:24:12;;;;;;;3.17;0.9;;;11.9;99.9;;;;;;;;;
2021/01/21 00:24:28;;;;;;;3.17;0.9;;;11.9;99.9;;;;;;;;;
2021/01/21 00:24:43;;;;;;;1.52;0.85;;;11.9;99.9;;;;;;;;;
2021/01/21 00:24:53;;;;;;;1.52;0.85;;;11.9;99.9;;;;;;;;;
2021/01/21 00:25:02;;;;;;;1.52;0.85;;;11.9;99.9;;;;;;;;;
2021/01/21 00:25:08;;;;;;;1.52;0.85;;;11.9;99.9;;;;;;;;;
2021/01/21 00:25:13;;;;;;;1.52;0.85;;;11.9;99.9;;;;;;;;;
2021/01/21 00:25:29;;;;;;;1.52;0.85;;;11.9;99.9;;;;;;;;;
2021/01/21 00:25:39;;;;;;;5.95;1.2;;;11.9;99.9;;;;;;;;;
2021/01/21 00:25:54;;;;;;;5.95;1.2;;;11.9;99.9;;;;;;;;;
2021/01/21 00:26:02;;;;;;;5.95;1.2;;;11.9;99.9;;;;;;;;;
2021/01/21 00:26:06;;;;;;;5.95;1.2;;;11.9;99.9;;;;;;;;;
2021/01/21 00:26:15;;;;;;;5.95;1.2;;;11.9;99.9;;;;;;;;;
2021/01/21 00:26:25;;;;;;;5.95;1.2;;;11.9;99.9;;;;;;;;;
2021/01/21 00:26:40;;;;;;;1.55;0.95;;;12;99.9;;;;;;;;;
2021/01/21 00:26:56;;;;;;;1.55;0.95;;;12;99.9;;;;;;;;;
2021/01/21 00:27:02;;;;;;;1.55;0.95;;;12;99.9;;;;;;;;;
2021/01/21 00:27:06;;;;;;;1.55;0.95;;;12;99.9;;;;;;;;;
2021/01/21 00:27:16;;;;;;;1.55;0.95;;;12;99.9;;;;;;;;;
2021/01/21 00:27:26;;;;;;;1.55;0.95;;;12;99.9;;;;;;;;;
2021/01/21 00:27:42;;;;;;;2.17;0.9;;;11.9;99.9;;;;;;;;;
2021/01/21 00:27:52;;;;;;;2.17;0.9;;;11.9;99.9;;;;;;;;;
2021/01/21 00:28:02;;;;;;;2.17;0.9;;;11.9;99.9;;;;;;;;;
2021/01/21 00:28:08;;;;;;;2.17;0.9;;;11.9;99.9;;;;;;;;;
2021/01/21 00:28:13;;;;;;;2.17;0.9;;;11.9;99.9;;;;;;;;;
2021/01/21 00:28:28;;;;;;;2.17;0.9;;;11.9;99.9;;;;;;;;;
2021/01/21 00:28:38;;;;;;;4.5;1.17;;;11.9;99.9;;;;;;;;;
2021/01/21 00:28:54;;;;;;;4.5;1.17;;;11.9;99.9;;;;;;;;;
2021/01/21 00:29:01;;;;;;;4.5;1.17;;;11.9;99.9;;;;;;;;;
2021/01/21 00:29:09;;;;;;;4.5;1.17;;;11.9;99.9;;;;;;;;;
2021/01/21 00:29:14;;;;;;;4.5;1.17;;;11.9;99.9;;;;;;;;;
2021/01/21 00:29:30;;;;;;;4.5;1.17;;;11.9;99.9;;;;;;;;;
2021/01/21 00:29:40;;;;;;;1.85;1;;;11.9;99.9;;;;;;;;;
2021/01/21 00:29:55;;;;;;;1.85;1;;;11.9;99.9;;;;;;;;;
2021/01/21 00:30:02;;;;;;;1.85;1;;;11.9;99.9;;;;;;;;;
2021/01/21 00:30:05;;;;;;;1.85;1;;;11.9;99.9;;;;;;;;;
2021/01/21 00:30:16;;;;;;;1.85;1;;;11.9;99.9;;;;;;;;;
2021/01/21 00:30:26;;;;;;;1.85;1;;;11.9;99.9;;;;;;;;;
2021/01/21 00:30:41;;;;;;;0.8;0.7;;;12;99.9;;;;;;;;;
2021/01/21 00:30:51;;;;;;;0.8;0.7;;;12;99.9;;;;;;;;;
2021/01/21 00:31:02;;;;;;;0.8;0.7;;;12;99.9;;;;;;;;;
2021/01/21 00:31:07;;;;;;;0.8;0.7;;;12;99.9;;;;;;;;;
2021/01/21 00:31:12;;;;;;;0.8;0.7;;;12;99.9;;;;;;;;;
2021/01/21 00:31:27;;;;;;;0.8;0.7;;;12;99.9;;;;;;;;;
2021/01/21 00:31:43;;;;;;;1.55;0.8;;;12;99.9;;;;;;;;;
2021/01/21 00:31:53;;;;;;;1.55;0.8;;;12;99.9;;;;;;;;;
2021/01/21 00:32:02;;;;;;;1.55;0.8;;;12;99.9;;;;;;;;;
2021/01/21 00:32:08;;;;;;;1.55;0.8;;;12;99.9;;;;;;;;;
2021/01/21 00:32:18;;;;;;;1.55;0.8;;;12;99.9;;;;;;;;;
2021/01/21 00:32:29;;;;;;;1.55;0.8;;;12;99.9;;;;;;;;;
2021/01/21 00:32:39;;;;;;;2.05;1.15;;;12;99.9;;;;;;;;;
2021/01/21 00:32:55;;;;;;;2.05;1.15;;;12;99.9;;;;;;;;;
2021/01/21 00:33:02;;;;;;;2.05;1.15;;;12;99.9;;;;;;;;;
2021/01/21 00:33:04;;;;;;;2.05;1.15;;;12;99.9;;;;;;;;;
2021/01/21 00:33:15;;;;;;;2.05;1.15;;;12;99.9;;;;;;;;;
2021/01/21 00:33:25;;;;;;;2.05;1.15;;;12;99.9;;;;;;;;;
2021/01/21 00:33:40;;;;;;;3.42;0.93;;;12;99.9;;;;;;;;;
2021/01/21 00:33:56;;;;;;;3.42;0.93;;;12;99.9;;;;;;;;;
2021/01/21 00:34:01;;;;;;;3.42;0.93;;;12;99.9;;;;;;;;;
2021/01/21 00:34:06;;;;;;;3.42;0.93;;;12;99.9;;;;;;;;;
2021/01/21 00:34:16;;;;;;;3.42;0.93;;;12;99.9;;;;;;;;;
2021/01/21 00:34:31;;;;;;;3.42;0.93;;;12;99.9;;;;;;;;;
2021/01/21 00:34:42;;;;;;;1.33;1.08;;;12;99.9;;;;;;;;;
2021/01/21 00:34:52;;;;;;;1.33;1.08;;;12;99.9;;;;;;;;;
2021/01/21 00:35:02;;;;;;;1.33;1.08;;;12;99.9;;;;;;;;;
2021/01/21 00:35:07;;;;;;;1.33;1.08;;;12;99.9;;;;;;;;;
2021/01/21 00:35:12;;;;;;;1.33;1.08;;;12;99.9;;;;;;;;;
2021/01/21 00:35:28;;;;;;;1.33;1.08;;;12;99.9;;;;;;;;;
2021/01/21 00:35:38;;;;;;;2.3;0.95;;;12;99.9;;;;;;;;;
2021/01/21 00:35:53;;;;;;;2.3;0.95;;;12;99.9;;;;;;;;;
2021/01/21 00:36:02;;;;;;;2.3;0.95;;;12;99.9;;;;;;;;;
2021/01/21 00:36:09;;;;;;;2.3;0.95;;;12;99.9;;;;;;;;;
2021/01/21 00:36:15;;;;;;;2.3;0.95;;;12;99.9;;;;;;;;;
2021/01/21 00:36:29;;;;;;;2.3;0.95;;;12;99.9;;;;;;;;;
2021/01/21 00:36:45;;;;;;;1.6;1.2;;;12;99.9;;;;;;;;;
2021/01/21 00:36:55;;;;;;;1.6;1.2;;;12;99.9;;;;;;;;;
2021/01/21 00:37:02;;;;;;;1.6;1.2;;;12;99.9;;;;;;;;;
2021/01/21 00:37:05;;;;;;;1.6;1.2;;;12;99.9;;;;;;;;;
2021/01/21 00:37:15;;;;;;;1.6;1.2;;;12;99.9;;;;;;;;;
2021/01/21 00:37:26;;;;;;;1.6;1.2;;;12;99.9;;;;;;;;;
2021/01/21 00:37:41;;;;;;;2.85;1.1;;;12;99.9;;;;;;;;;
2021/01/21 00:37:51;;;;;;;2.85;1.1;;;12;99.9;;;;;;;;;
2021/01/21 00:38:02;;;;;;;2.85;1.1;;;12;99.9;;;;;;;;;
2021/01/21 00:38:06;;;;;;;2.85;1.1;;;12;99.9;;;;;;;;;
2021/01/21 00:38:17;;;;;;;2.85;1.1;;;12;99.9;;;;;;;;;
2021/01/21 00:38:27;;;;;;;2.85;1.1;;;12;99.9;;;;;;;;;
2021/01/21 00:38:42;;;;;;;5.07;1.23;;;12;99.9;;;;;;;;;
2021/01/21 00:38:58;;;;;;;5.07;1.23;;;12;99.9;;;;;;;;;
2021/01/21 00:39:02;;;;;;;5.07;1.23;;;12;99.9;;;;;;;;;
2021/01/21 00:39:08;;;;;;;5.07;1.23;;;12;99.9;;;;;;;;;
2021/01/21 00:39:13;;;;;;;5.07;1.23;;;12;99.9;;;;;;;;;
2021/01/21 00:39:28;;;;;;;5.07;1.23;;;12;99.9;;;;;;;;;
2021/01/21 00:39:39;;;;;;;3.65;1.1;;;12;99.9;;;;;;;;;
2021/01/21 00:39:54;;;;;;;3.65;1.1;;;12;99.9;;;;;;;;;
2021/01/21 00:40:02;;;;;;;3.65;1.1;;;12;99.9;;;;;;;;;
2021/01/21 00:40:04;;;;;;;3.65;1.1;;;12;99.9;;;;;;;;;
2021/01/21 00:40:14;;;;;;;3.65;1.1;;;12;99.9;;;;;;;;;
2021/01/21 00:40:30;;;;;;;3.65;1.1;;;12;99.9;;;;;;;;;
2021/01/21 00:40:40;;;;;;;3.05;1.15;;;12;99.9;;;;;;;;;
2021/01/21 00:40:56;;;;;;;3.05;1.15;;;12;99.9;;;;;;;;;
2021/01/21 00:41:02;;;;;;;3.05;1.15;;;12;99.9;;;;;;;;;
2021/01/21 00:41:11;;;;;;;3.05;1.15;;;12;99.9;;;;;;;;;
2021/01/21 00:41:16;;;;;;;3.05;1.15;;;12;99.9;;;;;;;;;
2021/01/21 00:41:26;;;;;;;3.05;1.15;;;12;99.9;;;;;;;;;
2021/01/21 00:41:42;;;;;;;4.28;1.83;;;12;99.9;;;;;;;;;
2021/01/21 00:41:52;;;;;;;4.28;1.83;;;12;99.9;;;;;;;;;
2021/01/21 00:42:02;;;;;;;4.28;1.83;;;12;99.9;;;;;;;;;
2021/01/21 00:42:07;;;;;;;4.28;1.83;;;12;99.9;;;;;;;;;
2021/01/21 00:42:17;;;;;;;4.28;1.83;;;12;99.9;;;;;;;;;
2021/01/21 00:42:28;;;;;;;4.28;1.83;;;12;99.9;;;;;;;;;
2021/01/21 00:42:43;;;;;;;1.05;0.9;;;11.9;99.9;;;;;;;;;
2021/01/21 00:42:53;;;;;;;1.05;0.9;;;11.9;99.9;;;;;;;;;
2021/01/21 00:43:02;;;;;;;1.05;0.9;;;11.9;99.9;;;;;;;;;
2021/01/21 00:43:09;;;;;;;1.05;0.9;;;11.9;99.9;;;;;;;;;
2021/01/21 00:43:14;;;;;;;1.05;0.9;;;11.9;99.9;;;;;;;;;
2021/01/21 00:43:29;;;;;;;1.05;0.9;;;11.9;99.9;;;;;;;;;
2021/01/21 00:43:39;;;;;;;2.15;1.17;;;11.9;99.9;;;;;;;;;
2021/01/21 00:43:55;;;;;;;2.15;1.17;;;11.9;99.9;;;;;;;;;
2021/01/21 00:44:02;;;;;;;2.15;1.17;;;11.9;99.9;;;;;;;;;
2021/01/21 00:44:05;;;;;;;2.15;1.17;;;11.9;99.9;;;;;;;;;
2021/01/21 00:44:15;;;;;;;2.15;1.17;;;11.9;99.9;;;;;;;;;
2021/01/21 00:44:31;;;;;;;2.15;1.17;;;11.9;99.9;;;;;;;;;
2021/01/21 00:44:41;;;;;;;1.55;0.9;;;11.9;99.9;;;;;;;;;
2021/01/21 00:44:56;;;;;;;1.55;0.9;;;11.9;99.9;;;;;;;;;
2021/01/21 00:45:02;;;;;;;1.55;0.9;;;11.9;99.9;;;;;;;;;
2021/01/21 00:45:06;;;;;;;1.55;0.9;;;11.9;99.9;;;;;;;;;
2021/01/21 00:45:17;;;;;;;1.55;0.9;;;11.9;99.9;;;;;;;;;
2021/01/21 00:45:27;;;;;;;1.55;0.9;;;11.9;99.9;;;;;;;;;
2021/01/21 00:45:42;;;;;;;1.2;1.08;;;11.9;99.9;;;;;;;;;
2021/01/21 00:45:52;;;;;;;1.2;1.08;;;11.9;99.9;;;;;;;;;
2021/01/21 00:46:01;;;;;;;1.2;1.08;;;11.9;99.9;;;;;;;;;
2021/01/21 00:46:08;;;;;;;1.2;1.08;;;11.9;99.9;;;;;;;;;
2021/01/21 00:46:13;;;;;;;1.2;1.08;;;11.9;99.9;;;;;;;;;
2021/01/21 00:46:28;;;;;;;1.2;1.08;;;11.9;99.9;;;;;;;;;
2021/01/21 00:46:44;;;;;;;2.25;1;;;12;99.9;;;;;;;;;
2021/01/21 00:46:54;;;;;;;2.25;1;;;12;99.9;;;;;;;;;
2021/01/21 00:47:02;;;;;;;2.25;1;;;12;99.9;;;;;;;;;
2021/01/21 00:47:09;;;;;;;2.25;1;;;12;99.9;;;;;;;;;
2021/01/21 00:47:14;;;;;;;2.25;1;;;12;99.9;;;;;;;;;
2021/01/21 00:47:30;;;;;;;2.25;1;;;12;99.9;;;;;;;;;
2021/01/21 00:47:40;;;;;;;3.38;0.98;;;12;99.9;;;;;;;;;
2021/01/21 00:47:55;;;;;;;3.38;0.98;;;12;99.9;;;;;;;;;
2021/01/21 00:48:02;;;;;;;3.38;0.98;;;12;99.9;;;;;;;;;
2021/01/21 00:48:06;;;;;;;3.38;0.98;;;12;99.9;;;;;;;;;
2021/01/21 00:48:16;;;;;;;3.38;0.98;;;12;99.9;;;;;;;;;
2021/01/21 00:48:27;;;;;;;3.38;0.98;;;12;99.9;;;;;;;;;
2021/01/21 00:48:42;;;;;;;4.22;1.3;;;12;99.9;;;;;;;;;
2021/01/21 00:48:57;;;;;;;4.22;1.3;;;12;99.9;;;;;;;;;
2021/01/21 00:49:01;;;;;;;4.22;1.3;;;12;99.9;;;;;;;;;
2021/01/21 00:49:07;;;;;;;4.22;1.3;;;12;99.9;;;;;;;;;
2021/01/21 00:49:12;;;;;;;4.22;1.3;;;12;99.9;;;;;;;;;
2021/01/21 00:49:28;;;;;;;4.22;1.3;;;12;99.9;;;;;;;;;
2021/01/21 00:49:43;;;;;;;3.22;1.33;;;12;99.9;;;;;;;;;
2021/01/21 00:49:53;;;;;;;3.22;1.33;;;12;99.9;;;;;;;;;
2021/01/21 00:50:02;;;;;;;3.22;1.33;;;12;99.9;;;;;;;;;
2021/01/21 00:50:08;;;;;;;3.22;1.33;;;12;99.9;;;;;;;;;
2021/01/21 00:50:14;;;;;;;3.22;1.33;;;12;99.9;;;;;;;;;
2021/01/21 00:50:34;;;;;;;3.22;1.33;;;12;99.9;;;;;;;;;
2021/01/21 00:50:39;;;;;;;3.22;1.33;;;12;99.9;;;;;;;;;
2021/01/21 00:50:54;;;;;;;1.88;0.8;;;12;99.9;;;;;;;;;
2021/01/21 00:51:02;;;;;;;1.88;0.8;;;12;99.9;;;;;;;;;
2021/01/21 00:51:11;;;;;;;1.88;0.8;;;12;99.9;;;;;;;;;
2021/01/21 00:51:15;;;;;;;1.88;0.8;;;12;99.9;;;;;;;;;
2021/01/21 00:51:26;;;;;;;1.88;0.8;;;12;99.9;;;;;;;;;
2021/01/21 00:51:41;;;;;;;3.25;1.1;;;12;99.9;;;;;;;;;
2021/01/21 00:51:56;;;;;;;3.25;1.1;;;12;99.9;;;;;;;;;
2021/01/21 00:52:02;;;;;;;3.25;1.1;;;12;99.9;;;;;;;;;
2021/01/21 00:52:06;;;;;;;3.25;1.1;;;12;99.9;;;;;;;;;
2021/01/21 00:52:16;;;;;;;3.25;1.1;;;12;99.9;;;;;;;;;
2021/01/21 00:52:27;;;;;;;3.25;1.1;;;12;99.9;;;;;;;;;
2021/01/21 00:52:47;;;;;;;3.85;1.27;;;12;99.9;;;;;;;;;
2021/01/21 00:52:52;;;;;;;3.85;1.27;;;12;99.9;;;;;;;;;
2021/01/21 00:53:02;;;;;;;3.85;1.27;;;12;99.9;;;;;;;;;
2021/01/21 00:53:08;;;;;;;3.85;1.27;;;12;99.9;;;;;;;;;
2021/01/21 00:53:13;;;;;;;3.85;1.27;;;12;99.9;;;;;;;;;
2021/01/21 00:53:28;;;;;;;3.85;1.27;;;12;99.9;;;;;;;;;
2021/01/21 00:53:38;;;;;;;3.85;1.27;;;12;99.9;;;;;;;;;
2021/01/21 00:53:54;;;;;;;1.27;0.93;;;11.9;99.9;;;;;;;;;
2021/01/21 00:54:02;;;;;;;1.27;0.93;;;11.9;99.9;;;;;;;;;
2021/01/21 00:54:09;;;;;;;1.27;0.93;;;11.9;99.9;;;;;;;;;
2021/01/21 00:54:14;;;;;;;1.27;0.93;;;11.9;99.9;;;;;;;;;
2021/01/21 00:54:30;;;;;;;1.27;0.93;;;11.9;99.9;;;;;;;;;
2021/01/21 00:54:40;;;;;;;1.27;0.93;;;11.9;99.9;;;;;;;;;
2021/01/21 00:55:00;;;;;;;4.13;0.9;;;11.9;99.9;;;;;;;;;
2021/01/21 00:55:02;;;;;;;4.13;0.9;;;11.9;99.9;;;;;;;;;
2021/01/21 00:55:05;;;;;;;4.13;0.9;;;11.9;99.9;;;;;;;;;
2021/01/21 00:55:16;;;;;;;4.13;0.9;;;11.9;99.9;;;;;;;;;
2021/01/21 00:55:26;;;;;;;4.13;0.9;;;11.9;99.9;;;;;;;;;
2021/01/21 00:55:41;;;;;;;2.03;0.9;;;11.9;99.9;;;;;;;;;
2021/01/21 00:55:51;;;;;;;2.03;0.9;;;11.9;99.9;;;;;;;;;
2021/01/21 00:56:01;;;;;;;2.03;0.9;;;11.9;99.9;;;;;;;;;
2021/01/21 00:56:07;;;;;;;2.03;0.9;;;11.9;99.9;;;;;;;;;
2021/01/21 00:56:12;;;;;;;2.03;0.9;;;11.9;99.9;;;;;;;;;
2021/01/21 00:56:27;;;;;;;2.03;0.9;;;11.9;99.9;;;;;;;;;
2021/01/21 00:56:43;;;;;;;2.95;1.25;;;11.9;99.9;;;;;;;;;
2021/01/21 00:56:53;;;;;;;2.95;1.25;;;11.9;99.9;;;;;;;;;
2021/01/21 00:57:02;;;;;;;2.95;1.25;;;11.9;99.9;;;;;;;;;
2021/01/21 00:57:13;;;;;;;2.95;1.25;;;11.9;99.9;;;;;;;;;
2021/01/21 00:57:13;;;;;;;2.95;1.25;;;11.9;99.9;;;;;;;;;
2021/01/21 00:57:29;;;;;;;2.95;1.25;;;11.9;99.9;;;;;;;;;
2021/01/21 00:57:39;;;;;;;2.95;1.25;;;11.9;99.9;;;;;;;;;
2021/01/21 00:57:54;;;;;;;2.47;1;;;11.9;99.9;;;;;;;;;
2021/01/21 00:58:02;;;;;;;2.47;1;;;11.9;99.9;;;;;;;;;
2021/01/21 00:58:05;;;;;;;2.47;1;;;11.9;99.9;;;;;;;;;
2021/01/21 00:58:15;;;;;;;2.47;1;;;11.9;99.9;;;;;;;;;
2021/01/21 00:58:25;;;;;;;2.47;1;;;11.9;99.9;;;;;;;;;
2021/01/21 00:58:40;;;;;;;2.47;1;;;11.9;99.9;;;;;;;;;
2021/01/21 00:58:56;;;;;;;1.67;0.9;;;11.9;99.9;;;;;;;;;
2021/01/21 00:59:01;;;;;;;1.67;0.9;;;11.9;99.9;;;;;;;;;
2021/01/21 00:59:06;;;;;;;1.67;0.9;;;11.9;99.9;;;;;;;;;
2021/01/21 00:59:16;;;;;;;1.67;0.9;;;11.9;99.9;;;;;;;;;
2021/01/21 00:59:26;;;;;;;1.67;0.9;;;11.9;99.9;;;;;;;;;
2021/01/21 00:59:42;;;;;;;1.67;0.9;;;11.9;99.9;;;;;;;;;
2021/01/21 00:59:52;;;;;;;2.25;1.25;;;11.8;99.9;;;;;;;;;
2021/01/21 01:00:02;;;;;;;2.25;1.25;;;11.8;99.9;;;;;;;;;
2021/01/21 01:00:08;;;;;;;2.25;1.25;;;11.8;99.9;;;;;;;;;
2021/01/21 01:00:13;;;;;;;2.25;1.25;;;11.8;99.9;;;;;;;;;
2021/01/21 01:00:28;;;;;;;2.25;1.25;;;11.8;99.9;;;;;;;;;
2021/01/21 01:00:38;;;;;;;2.25;1.25;;;11.8;99.9;;;;;;;;;
2021/01/21 01:00:54;;;;;;;2.33;0.9;;;11.9;99.9;;;;;;;;;
2021/01/21 01:01:01;;;;;;;2.33;0.9;;;11.9;99.9;;;;;;;;;
2021/01/21 01:01:09;;;;;;;2.33;0.9;;;11.9;99.9;;;;;;;;;
2021/01/21 01:01:14;;;;;;;2.33;0.9;;;11.9;99.9;;;;;;;;;
2021/01/21 01:01:29;;;;;;;2.33;0.9;;;11.9;99.9;;;;;;;;;
2021/01/21 01:01:40;;;;;;;2.33;0.9;;;11.9;99.9;;;;;;;;;
2021/01/21 01:01:55;;;;;;;2.42;0.9;;;11.9;99.9;;;;;;;;;
2021/01/21 01:02:02;;;;;;;2.42;0.9;;;11.9;99.9;;;;;;;;;
2021/01/21 01:02:05;;;;;;;2.42;0.9;;;11.9;99.9;;;;;;;;;
2021/01/21 01:02:21;;;;;;;2.42;0.9;;;11.9;99.9;;;;;;;;;
2021/01/21 01:02:26;;;;;;;2.42;0.9;;;11.9;99.9;;;;;;;;;
2021/01/21 01:02:41;;;;;;;2.42;0.9;;;11.9;99.9;;;;;;;;;
2021/01/21 01:02:52;;;;;;;2.75;0.93;;;11.9;99.9;;;;;;;;;
2021/01/21 01:03:02;;;;;;;2.75;0.93;;;11.9;99.9;;;;;;;;;
2021/01/21 01:03:07;;;;;;;2.75;0.93;;;11.9;99.9;;;;;;;;;
2021/01/21 01:03:12;;;;;;;2.75;0.93;;;11.9;99.9;;;;;;;;;
2021/01/21 01:03:27;;;;;;;2.75;0.93;;;11.9;99.9;;;;;;;;;
2021/01/21 01:03:43;;;;;;;2.75;0.93;;;11.9;99.9;;;;;;;;;
2021/01/21 01:03:53;;;;;;;1.75;0.88;;;11.9;99.9;;;;;;;;;
2021/01/21 01:04:02;;;;;;;1.75;0.88;;;11.9;99.9;;;;;;;;;
2021/01/21 01:04:08;;;;;;;1.75;0.88;;;11.9;99.9;;;;;;;;;
2021/01/21 01:04:13;;;;;;;1.75;0.88;;;11.9;99.9;;;;;;;;;
2021/01/21 01:04:34;;;;;;;1.75;0.88;;;11.9;99.9;;;;;;;;;
2021/01/21 01:04:40;;;;;;;1.75;0.88;;;11.9;99.9;;;;;;;;;
2021/01/21 01:04:54;;;;;;;1.67;1.02;;;11.8;99.9;;;;;;;;;
2021/01/21 01:05:02;;;;;;;1.67;1.02;;;11.8;99.9;;;;;;;;;
2021/01/21 01:05:04;;;;;;;1.67;1.02;;;11.8;99.9;;;;;;;;;
2021/01/21 01:05:15;;;;;;;1.67;1.02;;;11.8;99.9;;;;;;;;;
2021/01/21 01:05:25;;;;;;;1.67;1.02;;;11.8;99.9;;;;;;;;;
2021/01/21 01:05:40;;;;;;;1.67;1.02;;;11.8;99.9;;;;;;;;;
2021/01/21 01:05:56;;;;;;;1.48;0.9;;;11.8;99.9;;;;;;;;;
2021/01/21 01:06:05;;;;;;;1.48;0.9;;;11.8;99.9;;;;;;;;;
2021/01/21 01:06:07;;;;;;;1.48;0.9;;;11.8;99.9;;;;;;;;;
2021/01/21 01:06:16;;;;;;;1.48;0.9;;;11.8;99.9;;;;;;;;;
2021/01/21 01:06:26;;;;;;;1.48;0.9;;;11.8;99.9;;;;;;;;;
2021/01/21 01:06:47;;;;;;;2.08;1.02;;;11.8;99.9;;;;;;;;;
2021/01/21 01:06:52;;;;;;;2.08;1.02;;;11.8;99.9;;;;;;;;;
2021/01/21 01:07:02;;;;;;;2.08;1.02;;;11.8;99.9;;;;;;;;;
2021/01/21 01:07:07;;;;;;;2.08;1.02;;;11.8;99.9;;;;;;;;;
2021/01/21 01:07:18;;;;;;;2.08;1.02;;;11.8;99.9;;;;;;;;;
2021/01/21 01:07:28;;;;;;;2.08;1.02;;;11.8;99.9;;;;;;;;;
2021/01/21 01:07:38;;;;;;;2.08;1.02;;;11.8;99.9;;;;;;;;;
2021/01/21 01:07:53;;;;;;;2.05;0.9;;;11.8;99.9;;;;;;;;;
2021/01/21 01:08:02;;;;;;;2.05;0.9;;;11.8;99.9;;;;;;;;;
2021/01/21 01:08:09;;;;;;;2.05;0.9;;;11.8;99.9;;;;;;;;;
2021/01/21 01:08:19;;;;;;;2.05;0.9;;;11.8;99.9;;;;;;;;;
2021/01/21 01:08:29;;;;;;;2.05;0.9;;;11.8;99.9;;;;;;;;;
2021/01/21 01:08:42;;;;;;;2.05;0.9;;;11.8;99.9;;;;;;;;;
2021/01/21 01:09:00;;;;;;;2.15;1.25;;;11.9;99.9;;;;;;;;;
2021/01/21 01:09:02;;;;;;;2.15;1.25;;;11.9;99.9;;;;;;;;;
2021/01/21 01:09:05;;;;;;;2.15;1.25;;;11.9;99.9;;;;;;;;;
2021/01/21 01:09:15;;;;;;;2.15;1.25;;;11.9;99.9;;;;;;;;;
2021/01/21 01:09:31;;;;;;;2.15;1.25;;;11.9;99.9;;;;;;;;;
2021/01/21 01:09:41;;;;;;;2.15;1.25;;;11.9;99.9;;;;;;;;;
2021/01/21 01:09:51;;;;;;;1.98;1.1;;;11.9;99.9;;;;;;;;;
2021/01/21 01:10:02;;;;;;;1.98;1.1;;;11.9;99.9;;;;;;;;;
2021/01/21 01:10:06;;;;;;;1.98;1.1;;;11.9;99.9;;;;;;;;;
2021/01/21 01:10:17;;;;;;;1.98;1.1;;;11.9;99.9;;;;;;;;;
2021/01/21 01:10:32;;;;;;;1.98;1.1;;;11.9;99.9;;;;;;;;;
2021/01/21 01:10:42;;;;;;;1.98;1.1;;;11.9;99.9;;;;;;;;;
2021/01/21 01:10:53;;;;;;;1.77;0.7;;;11.9;99.9;;;;;;;;;
2021/01/21 01:11:01;;;;;;;1.77;0.7;;;11.9;99.9;;;;;;;;;
2021/01/21 01:11:13;;;;;;;1.77;0.7;;;11.9;99.9;;;;;;;;;
2021/01/21 01:11:13;;;;;;;1.77;0.7;;;11.9;99.9;;;;;;;;;
2021/01/21 01:11:28;;;;;;;1.77;0.7;;;11.9;99.9;;;;;;;;;
2021/01/21 01:11:44;;;;;;;1.77;0.7;;;11.9;99.9;;;;;;;;;
2021/01/21 01:11:54;;;;;;;1.25;0.73;;;11.9;99.9;;;;;;;;;
2021/01/21 01:12:02;;;;;;;1.25;0.73;;;11.9;99.9;;;;;;;;;
2021/01/21 01:12:04;;;;;;;1.25;0.73;;;11.9;99.9;;;;;;;;;
2021/01/21 01:12:15;;;;;;;1.25;0.73;;;11.9;99.9;;;;;;;;;
2021/01/21 01:12:30;;;;;;;1.25;0.73;;;11.9;99.9;;;;;;;;;
2021/01/21 01:12:45;;;;;;;1.25;0.73;;;11.9;99.9;;;;;;;;;
2021/01/21 01:12:55;;;;;;;4.78;1.13;;;11.8;99.9;;;;;;;;;
2021/01/21 01:13:02;;;;;;;4.78;1.13;;;11.8;99.9;;;;;;;;;
2021/01/21 01:13:06;;;;;;;4.78;1.13;;;11.8;99.9;;;;;;;;;
2021/01/21 01:13:16;;;;;;;4.78;1.13;;;11.8;99.9;;;;;;;;;
2021/01/21 01:13:26;;;;;;;4.78;1.13;;;11.8;99.9;;;;;;;;;
2021/01/21 01:13:42;;;;;;;4.78;1.13;;;11.8;99.9;;;;;;;;;
2021/01/21 01:13:57;;;;;;;1.7;1;;;11.8;99.9;;;;;;;;;
2021/01/21 01:14:02;;;;;;;1.7;1;;;11.8;99.9;;;;;;;;;
2021/01/21 01:14:07;;;;;;;1.7;1;;;11.8;99.9;;;;;;;;;
2021/01/21 01:14:12;;;;;;;1.7;1;;;11.8;99.9;;;;;;;;;
2021/01/21 01:14:28;;;;;;;1.7;1;;;11.8;99.9;;;;;;;;;
2021/01/21 01:14:43;;;;;;;1.7;1;;;11.8;99.9;;;;;;;;;
2021/01/21 01:14:58;;;;;;;2.65;1.17;;;11.8;99.9;;;;;;;;;
2021/01/21 01:15:02;;;;;;;2.65;1.17;;;11.8;99.9;;;;;;;;;
2021/01/21 01:15:09;;;;;;;2.65;1.17;;;11.8;99.9;;;;;;;;;
2021/01/21 01:15:14;;;;;;;2.65;1.17;;;11.8;99.9;;;;;;;;;
2021/01/21 01:15:29;;;;;;;2.65;1.17;;;11.8;99.9;;;;;;;;;
2021/01/21 01:15:39;;;;;;;2.65;1.17;;;11.8;99.9;;;;;;;;;
2021/01/21 01:15:55;;;;;;;2.17;0.9;;;11.8;99.9;;;;;;;;;
2021/01/21 01:16:01;;;;;;;2.17;0.9;;;11.8;99.9;;;;;;;;;
2021/01/21 01:16:10;;;;;;;2.17;0.9;;;11.8;99.9;;;;;;;;;
2021/01/21 01:16:15;;;;;;;2.17;0.9;;;11.8;99.9;;;;;;;;;
2021/01/21 01:16:26;;;;;;;2.17;0.9;;;11.8;99.9;;;;;;;;;
2021/01/21 01:16:41;;;;;;;2.17;0.9;;;11.8;99.9;;;;;;;;;